createdAt,value
2022-08-10T00:00:45.467Z,102828.38
2022-08-10T00:03:12.354Z,102820.44
2022-08-10T00:05:43.668Z,102820.34
2022-08-10T00:08:20.659Z,102819.53
2022-08-10T00:10:50.494Z,102814.38
2022-08-10T00:13:17.349Z,102810.19
2022-08-10T00:15:53.848Z,102812.06
2022-08-10T00:18:34.287Z,102824.50
2022-08-10T00:21:03.071Z,102821.22
2022-08-10T00:23:30.169Z,102808.31
2022-08-10T00:25:57.105Z,102808.41
2022-08-10T00:28:24.105Z,102812.13
2022-08-10T00:30:51.094Z,102816.69
2022-08-10T00:33:18.088Z,102817.72
2022-08-10T00:35:44.944Z,102823.13
2022-08-10T00:38:11.976Z,102823.25
2022-08-10T00:40:39.138Z,102817.28
2022-08-10T00:43:07.259Z,102824.25
2022-08-10T00:45:35.592Z,102817.31
2022-08-10T00:48:02.539Z,102813.84
2022-08-10T00:50:29.939Z,102816.47
2022-08-10T00:52:57.352Z,102820.72
2022-08-10T00:55:25.010Z,102818.13
2022-08-10T00:57:55.477Z,102817.28
2022-08-10T01:00:26.322Z,102810.28
2022-08-10T01:02:53.414Z,102790.38
2022-08-10T01:05:20.970Z,102804.84
2022-08-10T01:08:05.796Z,102803.84
2022-08-10T01:10:41.842Z,102804.88
2022-08-10T01:13:17.197Z,102803.50
2022-08-10T01:15:56.934Z,102814.13
2022-08-10T01:18:29.463Z,102813.34
2022-08-10T01:21:25.432Z,102813.50
2022-08-10T01:24:10.916Z,102816.16
2022-08-10T01:27:04.449Z,102805.34
2022-08-10T01:29:53.862Z,102805.50
2022-08-10T01:32:31.607Z,102806.63
2022-08-10T01:35:11.298Z,102807.75
2022-08-10T01:37:44.140Z,102787.91
2022-08-10T01:40:23.260Z,102794.13
2022-08-10T01:42:51.334Z,102795.09
2022-08-10T01:45:21.459Z,102797.75
2022-08-10T01:48:16.656Z,102783.16
2022-08-10T01:50:53.194Z,102785.88
2022-08-10T01:53:41.031Z,102794.69
2022-08-10T01:56:12.272Z,102792.94
2022-08-10T01:58:40.084Z,102796.47
2022-08-10T02:01:11.267Z,102800.94
2022-08-10T02:04:04.184Z,102788.94
2022-08-10T02:06:37.419Z,102790.81
2022-08-10T02:09:07.719Z,102798.69
2022-08-10T02:12:06.473Z,102787.38
2022-08-10T02:14:33.177Z,102790.84
2022-08-10T02:17:04.217Z,102797.59
2022-08-10T02:19:35.515Z,102797.44
2022-08-10T02:22:35.254Z,102795.41
2022-08-10T02:24:53.261Z,102791.56
2022-08-10T02:27:23.738Z,102793.03
2022-08-10T02:29:52.932Z,102791.94
2022-08-10T02:32:32.976Z,102792.47
2022-08-10T02:35:06.689Z,102798.41
2022-08-10T02:37:37.583Z,102787.91
2022-08-10T02:40:05.036Z,102792.09
2022-08-10T02:45:20.593Z,102798.19
2022-08-10T02:45:35.821Z,102807.81
2022-08-10T02:48:10.311Z,102799.03
2022-08-10T02:50:38.951Z,102796.47
2022-08-10T02:53:54.281Z,102780.59
2022-08-10T02:56:10.477Z,102780.44
2022-08-10T02:58:44.440Z,102785.28
2022-08-10T03:01:16.347Z,102781.63
2022-08-10T03:03:59.412Z,102783.81
2022-08-10T03:06:33.981Z,102771.53
2022-08-10T03:09:03.130Z,102784.34
2022-08-10T03:12:37.651Z,102774.56
2022-08-10T03:14:20.170Z,102766.53
2022-08-10T03:16:48.295Z,102768.16
2022-08-10T03:20:34.707Z,102773.25
2022-08-10T03:22:05.740Z,102762.81
2022-08-10T03:24:34.013Z,102774.81
2022-08-10T03:27:02.091Z,102766.03
2022-08-10T03:29:30.720Z,102769.47
2022-08-10T03:32:20.185Z,102773.03
2022-08-10T03:34:47.455Z,102769.41
2022-08-10T03:37:14.383Z,102763.09
2022-08-10T03:39:41.474Z,102769.09
2022-08-10T03:42:13.078Z,102759.31
2022-08-10T03:44:43.058Z,102758.38
2022-08-10T03:47:16.575Z,102759.97
2022-08-10T03:49:44.265Z,102759.75
2022-08-10T03:52:12.037Z,102756.28
2022-08-10T03:54:39.799Z,102763.19
2022-08-10T03:57:07.262Z,102757.06
2022-08-10T03:59:35.436Z,102761.25
2022-08-10T04:02:44.073Z,102757.75
2022-08-10T04:04:50.873Z,102762.06
2022-08-10T04:07:18.631Z,102758.50
2022-08-10T04:09:55.298Z,102748.84
2022-08-10T04:12:24.215Z,102753.22
2022-08-10T04:14:52.808Z,102746.94
2022-08-10T04:18:02.875Z,102745.16
2022-08-10T04:20:19.718Z,102740.00
2022-08-10T04:22:52.845Z,102751.22
2022-08-10T04:25:22.189Z,102752.91
2022-08-10T04:27:50.370Z,102745.97
2022-08-10T04:30:17.762Z,102744.28
2022-08-10T04:32:47.994Z,102750.28
2022-08-10T04:35:17.452Z,102750.19
2022-08-10T04:37:47.318Z,102744.94
2022-08-10T04:40:25.198Z,102739.59
2022-08-10T04:43:07.329Z,102737.03
2022-08-10T04:45:48.497Z,102743.97
2022-08-10T04:48:40.901Z,102744.06
2022-08-10T04:51:18.396Z,102747.50
2022-08-10T04:54:04.559Z,102741.38
2022-08-10T04:56:35.840Z,102738.75
2022-08-10T04:59:03.637Z,102749.25
2022-08-10T05:02:28.332Z,102742.28
2022-08-10T05:04:35.904Z,102748.38
2022-08-10T05:07:10.346Z,102751.00
2022-08-10T05:10:01.384Z,102747.56
2022-08-10T05:12:26.570Z,102743.25
2022-08-10T05:14:54.725Z,102739.59
2022-08-10T05:17:22.856Z,102737.03
2022-08-10T05:20:03.031Z,102732.75
2022-08-10T05:22:32.820Z,102735.38
2022-08-10T05:24:59.920Z,102731.84
2022-08-10T05:27:26.761Z,102739.75
2022-08-10T05:30:01.468Z,102726.59
2022-08-10T05:32:31.108Z,102722.31
2022-08-10T05:34:58.095Z,102730.03
2022-08-10T05:38:12.832Z,102728.19
2022-08-10T05:40:13.747Z,102717.75
2022-08-10T05:42:41.946Z,102722.81
2022-08-10T05:45:22.132Z,102721.84
2022-08-10T05:48:41.801Z,102722.59
2022-08-10T05:50:36.285Z,102728.63
2022-08-10T05:53:59.841Z,102723.28
2022-08-10T05:55:50.462Z,102727.50
2022-08-10T05:58:17.456Z,102719.53
2022-08-10T06:00:50.528Z,102715.03
2022-08-10T06:03:23.973Z,102722.50
2022-08-10T06:05:55.389Z,102731.78
2022-08-10T06:08:24.924Z,102732.31
2022-08-10T06:12:27.803Z,102738.09
2022-08-10T06:14:13.766Z,102732.41
2022-08-10T06:16:44.616Z,102734.66
2022-08-10T06:19:14.779Z,102735.19
2022-08-10T06:22:00.375Z,102732.34
2022-08-10T06:24:34.317Z,102728.28
2022-08-10T06:27:01.168Z,102733.22
2022-08-10T06:29:31.084Z,102720.72
2022-08-10T06:31:59.770Z,102729.31
2022-08-10T06:34:33.007Z,102722.63
2022-08-10T06:37:02.916Z,102721.91
2022-08-10T06:39:34.870Z,102716.94
2022-08-10T06:42:41.204Z,102716.66
2022-08-10T06:45:18.841Z,102728.72
2022-08-10T06:48:02.742Z,102712.81
2022-08-10T06:50:45.104Z,102718.69
2022-08-10T06:53:53.526Z,102719.31
2022-08-10T06:56:19.225Z,102714.16
2022-08-10T06:59:08.602Z,102716.03
2022-08-10T07:01:53.464Z,102720.19
2022-08-10T07:04:32.083Z,102711.69
2022-08-10T07:07:04.577Z,102716.13
2022-08-10T07:09:35.813Z,102723.06
2022-08-10T07:12:07.564Z,102718.97
2022-08-10T07:14:46.492Z,102724.13
2022-08-10T07:17:16.816Z,102729.84
2022-08-10T07:19:52.490Z,102731.16
2022-08-10T07:23:08.669Z,102729.13
2022-08-10T07:25:13.242Z,102733.34
2022-08-10T07:28:00.735Z,102724.84
2022-08-10T07:30:36.084Z,102725.19
2022-08-10T07:33:06.802Z,102724.09
2022-08-10T07:35:43.143Z,102718.06
2022-08-10T07:38:31.863Z,102718.72
2022-08-10T07:41:03.315Z,102717.00
2022-08-10T07:43:35.881Z,102706.31
2022-08-10T07:46:05.472Z,102710.03
2022-08-10T07:48:42.586Z,102714.84
2022-08-10T07:51:10.699Z,102707.47
2022-08-10T07:53:43.993Z,102710.03
2022-08-10T07:56:26.290Z,102709.16
2022-08-10T07:59:09.442Z,102712.03
2022-08-10T08:01:47.043Z,102713.72
2022-08-10T08:04:17.282Z,102716.28
2022-08-10T08:06:46.233Z,102720.81
2022-08-10T08:09:13.274Z,102707.19
2022-08-10T08:11:43.699Z,102707.84
2022-08-10T08:14:12.039Z,102706.72
2022-08-10T08:16:42.357Z,102707.63
2022-08-10T08:19:27.836Z,102702.84
2022-08-10T08:24:10.568Z,102713.19
2022-08-10T08:24:49.217Z,102709.75
2022-08-10T08:27:20.567Z,102712.13
2022-08-10T08:29:49.620Z,102714.34
2022-08-10T08:32:19.744Z,102716.31
2022-08-10T08:34:47.653Z,102714.59
2022-08-10T08:38:33.086Z,102723.47
2022-08-10T08:40:08.168Z,102710.09
2022-08-10T08:43:02.618Z,102718.88
2022-08-10T08:46:00.669Z,102700.59
2022-08-10T08:48:45.037Z,102704.50
2022-08-10T08:52:12.485Z,102700.97
2022-08-10T08:54:53.674Z,102697.38
2022-08-10T08:57:50.604Z,102698.22
2022-08-10T09:00:37.454Z,102698.78
2022-08-10T09:03:32.079Z,102700.63
2022-08-10T09:06:36.302Z,102702.81
2022-08-10T09:09:45.332Z,102692.81
2022-08-10T09:12:32.034Z,102692.47
2022-08-10T09:15:06.152Z,102701.22
2022-08-10T09:17:47.034Z,102695.69
2022-08-10T09:21:06.605Z,102691.66
2022-08-10T09:24:05.474Z,102689.06
2022-08-10T09:26:57.436Z,102688.06
2022-08-10T09:29:29.852Z,102687.34
2022-08-10T09:35:39.897Z,102686.25
2022-08-10T09:36:25.568Z,102686.47
2022-08-10T09:38:03.434Z,102686.25
2022-08-10T09:40:59.481Z,102675.78
2022-08-10T09:43:46.544Z,102678.16
2022-08-10T09:46:16.148Z,102676.09
2022-08-10T09:49:01.428Z,102672.97
2022-08-10T09:51:52.287Z,102677.09
2022-08-10T09:54:53.739Z,102666.13
2022-08-10T09:57:49.812Z,102658.59
2022-08-10T10:00:23.568Z,102656.94
2022-08-10T10:03:17.749Z,102652.34
2022-08-10T10:06:13.679Z,102644.03
2022-08-10T10:08:49.587Z,102647.72
2022-08-10T10:11:40.489Z,102644.84
2022-08-10T10:14:14.095Z,102640.41
2022-08-10T10:17:21.177Z,102641.28
2022-08-10T10:19:55.302Z,102636.44
2022-08-10T10:22:51.161Z,102618.84
2022-08-10T10:25:50.127Z,102618.50
2022-08-10T10:29:15.205Z,102613.44
2022-08-10T10:31:30.380Z,102609.03
2022-08-10T10:34:00.144Z,102598.53
2022-08-10T10:36:29.095Z,102605.59
2022-08-10T10:38:59.363Z,102596.31
2022-08-10T10:42:03.840Z,102593.47
2022-08-10T10:45:07.440Z,102591.09
2022-08-10T10:47:49.395Z,102587.78
2022-08-10T10:50:39.114Z,102572.97
2022-08-10T10:53:27.106Z,102576.19
2022-08-10T10:56:19.399Z,102571.84
2022-08-10T10:58:58.336Z,102568.22
2022-08-10T11:02:02.739Z,102567.09
2022-08-10T11:04:45.987Z,102575.22
2022-08-10T11:07:26.312Z,102570.16
2022-08-10T11:10:18.194Z,102563.78
2022-08-10T11:14:22.903Z,102564.06
2022-08-10T11:16:04.221Z,102558.22
2022-08-10T11:19:15.779Z,102557.97
2022-08-10T11:21:57.307Z,102548.25
2022-08-10T11:24:52.503Z,102553.66
2022-08-10T11:27:33.679Z,102553.66
2022-08-10T11:30:14.202Z,102552.31
2022-08-10T11:33:32.642Z,102553.59
2022-08-10T11:36:09.176Z,102539.91
2022-08-10T11:39:13.980Z,102553.50
2022-08-10T11:42:11.987Z,102552.25
2022-08-10T11:44:43.784Z,102545.94
2022-08-10T11:47:15.348Z,102542.28
2022-08-10T11:49:57.390Z,102538.84
2022-08-10T11:52:36.023Z,102537.09
2022-08-10T11:55:13.651Z,102536.56
2022-08-10T11:57:54.370Z,102526.38
2022-08-10T12:00:24.339Z,102539.75
2022-08-10T12:02:56.035Z,102533.88
2022-08-10T12:05:54.528Z,102531.88
2022-08-10T12:10:03.618Z,102527.69
2022-08-10T12:11:24.501Z,102533.69
2022-08-10T12:14:21.281Z,102532.19
2022-08-10T12:16:52.766Z,102532.25
2022-08-10T12:20:02.326Z,102530.09
2022-08-10T12:22:57.006Z,102520.47
2022-08-10T12:25:56.523Z,102524.81
2022-08-10T12:28:50.912Z,102519.22
2022-08-10T12:31:25.415Z,102516.59
2022-08-10T12:34:04.921Z,102515.28
2022-08-10T12:36:45.013Z,102521.25
2022-08-10T12:39:17.395Z,102513.22
2022-08-10T12:42:10.547Z,102517.00
2022-08-10T12:45:02.268Z,102504.06
2022-08-10T12:48:11.717Z,102518.09
2022-08-10T12:50:56.162Z,102509.41
2022-08-10T12:53:43.947Z,102510.75
2022-08-10T12:56:10.999Z,102509.22
2022-08-10T12:58:59.159Z,102507.56
2022-08-10T13:02:06.642Z,102497.53
2022-08-10T13:04:28.980Z,102494.13
2022-08-10T13:07:00.280Z,102492.31
2022-08-10T13:09:27.688Z,102485.19
2022-08-10T13:12:35.929Z,102488.06
2022-08-10T13:14:58.128Z,102486.31
2022-08-10T13:17:32.543Z,102494.25
2022-08-10T13:20:20.860Z,102483.72
2022-08-10T13:22:49.125Z,102480.34
2022-08-10T13:25:21.705Z,102476.31
2022-08-10T13:28:00.763Z,102481.00
2022-08-10T13:30:41.286Z,102473.78
2022-08-10T13:33:11.262Z,102472.47
2022-08-10T13:35:39.280Z,102469.91
2022-08-10T13:38:09.367Z,102477.47
2022-08-10T13:40:38.089Z,102465.38
2022-08-10T13:43:07.744Z,102465.75
2022-08-10T13:45:43.038Z,102463.06
2022-08-10T13:48:19.751Z,102455.28
2022-08-10T13:50:49.269Z,102458.91
2022-08-10T13:53:18.560Z,102454.34
2022-08-10T13:55:57.287Z,102452.59
2022-08-10T13:58:53.780Z,102448.94
2022-08-10T14:01:31.940Z,102453.56
2022-08-10T14:04:01.280Z,102448.72
2022-08-10T14:06:30.080Z,102439.78
2022-08-10T14:09:01.822Z,102449.09
2022-08-10T14:11:31.105Z,102439.75
2022-08-10T14:14:00.833Z,102445.66
2022-08-10T14:16:29.467Z,102444.25
2022-08-10T14:19:00.144Z,102437.81
2022-08-10T14:21:27.615Z,102435.69
2022-08-10T14:23:54.758Z,102441.00
2022-08-10T14:26:28.531Z,102443.16
2022-08-10T14:29:09.501Z,102436.78
2022-08-10T14:32:01.130Z,102448.28
2022-08-10T14:36:16.544Z,102435.97
2022-08-10T14:37:30.084Z,102438.34
2022-08-10T14:40:08.599Z,102424.53
2022-08-10T14:42:43.778Z,102424.16
2022-08-10T14:45:34.790Z,102433.78
2022-08-10T14:48:12.180Z,102429.25
2022-08-10T14:50:55.979Z,102429.69
2022-08-10T14:53:26.722Z,102426.44
2022-08-10T14:55:58.683Z,102422.69
2022-08-10T14:58:33.343Z,102410.19
2022-08-10T15:01:01.635Z,102412.09
2022-08-10T15:03:58.640Z,102401.22
2022-08-10T15:06:30.431Z,102402.50
2022-08-10T15:09:19.686Z,102396.06
2022-08-10T15:12:14.804Z,102396.63
2022-08-10T15:14:42.925Z,102398.06
2022-08-10T15:17:13.965Z,102394.00
2022-08-10T15:20:02.843Z,102396.84
2022-08-10T15:22:38.017Z,102399.00
2022-08-10T15:25:19.282Z,102393.16
2022-08-10T15:28:10.795Z,102400.91
2022-08-10T15:30:43.060Z,102395.13
2022-08-10T15:34:03.432Z,102385.34
2022-08-10T15:37:35.986Z,102379.94
2022-08-10T15:40:21.270Z,102380.56
2022-08-10T15:42:35.639Z,102362.22
2022-08-10T15:45:03.203Z,102377.78
2022-08-10T15:47:46.340Z,102381.81
2022-08-10T15:50:40.290Z,102373.38
2022-08-10T15:53:16.843Z,102374.03
2022-08-10T15:55:59.090Z,102361.16
2022-08-10T15:58:49.934Z,102364.56
2022-08-10T16:02:14.322Z,102359.13
2022-08-10T16:04:20.072Z,102350.84
2022-08-10T16:07:00.850Z,102347.97
2022-08-10T16:10:22.410Z,102352.03
2022-08-10T16:12:34.720Z,102344.00
2022-08-10T16:15:07.824Z,102344.34
2022-08-10T16:17:54.550Z,102349.25
2022-08-10T16:20:33.509Z,102345.16
2022-08-10T16:23:25.482Z,102346.63
2022-08-10T16:26:14.960Z,102339.00
2022-08-10T16:29:10.673Z,102337.41
2022-08-10T16:31:47.854Z,102337.41
2022-08-10T16:34:19.007Z,102331.53
2022-08-10T16:36:58.697Z,102329.38
2022-08-10T16:39:58.555Z,102333.03
2022-08-10T16:42:21.826Z,102328.44
2022-08-10T16:45:13.613Z,102320.00
2022-08-10T16:47:50.836Z,102323.38
2022-08-10T16:50:25.617Z,102326.16
2022-08-10T16:52:54.409Z,102318.88
2022-08-10T16:55:47.864Z,102315.53
2022-08-10T16:58:14.264Z,102315.03
2022-08-10T17:00:43.450Z,102306.28
2022-08-10T17:03:22.448Z,102307.81
2022-08-10T17:06:10.784Z,102308.19
2022-08-10T17:08:48.187Z,102306.47
2022-08-10T17:11:19.155Z,102303.78
2022-08-10T17:13:47.195Z,102305.59
2022-08-10T17:16:17.373Z,102301.09
2022-08-10T17:18:46.964Z,102302.63
2022-08-10T17:21:22.350Z,102306.47
2022-08-10T17:23:55.546Z,102308.84
2022-08-10T17:26:35.345Z,102298.91
2022-08-10T17:29:54.179Z,102294.88
2022-08-10T17:32:05.681Z,102295.34
2022-08-10T17:34:46.449Z,102296.00
2022-08-10T17:37:20.611Z,102299.81
2022-08-10T17:39:56.547Z,102298.25
2022-08-10T17:42:25.681Z,102297.06
2022-08-10T17:44:54.501Z,102289.59
2022-08-10T17:47:27.098Z,102291.56
2022-08-10T17:49:58.949Z,102282.41
2022-08-10T17:52:30.905Z,102288.34
2022-08-10T17:55:04.454Z,102283.50
2022-08-10T17:57:39.564Z,102278.09
2022-08-10T18:00:15.915Z,102280.56
2022-08-10T18:02:46.595Z,102284.59
2022-08-10T18:05:15.234Z,102273.09
2022-08-10T18:07:51.853Z,102271.91
2022-08-10T18:10:22.223Z,102275.84
2022-08-10T18:12:56.599Z,102269.53
2022-08-10T18:15:27.854Z,102274.69
2022-08-10T18:18:01.132Z,102274.53
2022-08-10T18:20:35.106Z,102272.44
2022-08-10T18:23:03.649Z,102268.81
2022-08-10T18:25:35.139Z,102268.56
2022-08-10T18:28:05.704Z,102269.28
2022-08-10T18:30:45.137Z,102277.81
2022-08-10T18:33:14.956Z,102271.38
2022-08-10T18:35:44.417Z,102269.03
2022-08-10T18:38:12.968Z,102274.28
2022-08-10T18:40:43.737Z,102274.16
2022-08-10T18:44:06.444Z,102274.75
2022-08-10T18:46:01.429Z,102273.50
2022-08-10T18:48:39.127Z,102276.88
2022-08-10T18:51:07.042Z,102276.44
2022-08-10T18:53:50.773Z,102277.59
2022-08-10T18:56:39.289Z,102272.38
2022-08-10T18:59:16.525Z,102271.16
2022-08-10T19:01:58.582Z,102268.31
2022-08-10T19:04:36.317Z,102275.50
2022-08-10T19:07:29.074Z,102276.75
2022-08-10T19:10:10.666Z,102280.09
2022-08-10T19:12:43.338Z,102285.13
2022-08-10T19:15:40.490Z,102280.44
2022-08-10T19:18:20.085Z,102279.94
2022-08-10T19:21:11.564Z,102288.88
2022-08-10T19:24:09.727Z,102282.47
2022-08-10T19:26:55.160Z,102290.94
2022-08-10T19:30:07.954Z,102289.88
2022-08-10T19:32:51.046Z,102285.06
2022-08-10T19:36:03.225Z,102287.19
2022-08-10T19:38:56.673Z,102287.75
2022-08-10T19:41:32.524Z,102290.84
2022-08-10T19:44:30.402Z,102289.09
2022-08-10T19:47:07.170Z,102287.13
2022-08-10T19:49:41.898Z,102286.41
2022-08-10T19:52:25.077Z,102296.50
2022-08-10T19:55:15.146Z,102296.72
2022-08-10T19:58:02.904Z,102289.78
2022-08-10T20:00:41.196Z,102292.22
2022-08-10T20:03:14.506Z,102294.81
2022-08-10T20:06:18.830Z,102292.25
2022-08-10T20:09:07.078Z,102287.38
2022-08-10T20:11:45.547Z,102301.34
2022-08-10T20:14:21.608Z,102304.22
2022-08-10T20:16:51.559Z,102305.56
2022-08-10T20:19:25.992Z,102312.41
2022-08-10T20:22:14.640Z,102310.00
2022-08-10T20:24:50.083Z,102318.28
2022-08-10T20:27:57.779Z,102324.38
2022-08-10T20:30:14.947Z,102328.56
2022-08-10T20:32:54.905Z,102310.81
2022-08-10T20:35:28.553Z,102325.06
2022-08-10T20:38:14.859Z,102323.59
2022-08-10T20:41:16.616Z,102333.91
2022-08-10T20:44:11.271Z,102334.78
2022-08-10T20:46:45.983Z,102334.81
2022-08-10T20:49:18.662Z,102330.31
2022-08-10T20:51:58.634Z,102324.56
2022-08-10T20:54:32.715Z,102339.56
2022-08-10T20:57:54.586Z,102340.34
2022-08-10T21:00:18.684Z,102341.94
2022-08-10T21:03:32.976Z,102340.50
2022-08-10T21:06:50.723Z,102351.44
2022-08-10T21:09:23.559Z,102355.66
2022-08-10T21:12:21.577Z,102349.22
2022-08-10T21:15:23.861Z,102353.38
2022-08-10T21:18:15.274Z,102354.16
2022-08-10T21:21:19.954Z,102353.03
2022-08-10T21:24:08.417Z,102355.69
2022-08-10T21:27:16.341Z,102363.28
2022-08-10T21:30:09.137Z,102353.22
2022-08-10T21:33:38.015Z,102366.13
2022-08-10T21:36:24.523Z,102362.50
2022-08-10T21:39:44.221Z,102369.94
2022-08-10T21:42:48.473Z,102373.06
2022-08-10T21:46:14.546Z,102377.94
2022-08-10T21:49:22.963Z,102375.81
2022-08-10T21:52:53.690Z,102371.06
2022-08-10T21:55:58.604Z,102371.94
2022-08-10T21:59:05.177Z,102365.47
2022-08-10T22:02:04.432Z,102367.31
2022-08-10T22:04:50.206Z,102367.19
2022-08-10T22:07:38.901Z,102360.91
2022-08-10T22:10:27.410Z,102359.91
2022-08-10T22:13:20.105Z,102355.53
2022-08-10T22:16:13.471Z,102357.78
2022-08-10T22:19:04.228Z,102368.81
2022-08-10T22:22:05.827Z,102353.63
2022-08-10T22:25:29.201Z,102353.16
2022-08-10T22:28:18.334Z,102356.44
2022-08-10T22:31:32.568Z,102357.63
2022-08-10T22:34:56.705Z,102357.94
2022-08-10T22:38:20.580Z,102351.97
2022-08-10T22:41:06.071Z,102356.19
2022-08-10T22:43:53.284Z,102353.00
2022-08-10T22:46:46.708Z,102345.44
2022-08-10T22:49:20.706Z,102343.25
2022-08-10T22:51:50.521Z,102346.97
2022-08-10T22:54:38.613Z,102345.41
2022-08-10T22:57:25.012Z,102341.28
2022-08-10T22:59:52.737Z,102343.31
2022-08-10T23:02:22.351Z,102342.75
2022-08-10T23:04:55.729Z,102347.47
2022-08-10T23:07:22.629Z,102357.38
2022-08-10T23:10:11.182Z,102354.03
2022-08-10T23:13:05.827Z,102356.19
2022-08-10T23:16:01.752Z,102359.97
2022-08-10T23:19:07.500Z,102361.13
2022-08-10T23:22:03.229Z,102365.81
2022-08-10T23:24:29.090Z,102362.22
2022-08-10T23:26:58.748Z,102365.31
2022-08-10T23:29:42.542Z,102358.56
2022-08-10T23:32:31.146Z,102360.75
2022-08-10T23:36:30.225Z,102365.47
2022-08-10T23:37:48.225Z,102356.28
2022-08-10T23:40:18.091Z,102351.22
2022-08-10T23:42:49.334Z,102363.72
2022-08-10T23:45:22.330Z,102355.19
2022-08-10T23:47:53.923Z,102364.25
2022-08-10T23:50:23.580Z,102358.50
2022-08-10T23:52:54.682Z,102364.78
2022-08-10T23:55:25.100Z,102373.72
2022-08-10T23:58:02.036Z,102368.69
